sensor_id;sensor_type;location;lat;lon;timestamp;temperature;humidity
59025;DHT22;44806;48.008;13.666;2022-11-20T00:01:32;4.60;99.90
59025;DHT22;44806;48.008;13.666;2022-11-20T00:03:59;4.60;99.90
59025;DHT22;44806;48.008;13.666;2022-11-20T00:06:27;4.60;99.90
59025;DHT22;44806;48.008;13.666;2022-11-20T00:08:57;4.60;99.90
59025;DHT22;44806;48.008;13.666;2022-11-20T00:11:26;4.60;99.90
59025;DHT22;44806;48.008;13.666;2022-11-20T00:13:55;4.60;99.90
59025;DHT22;44806;48.008;13.666;2022-11-20T00:16:24;4.60;99.90
59025;DHT22;44806;48.008;13.666;2022-11-20T00:18:52;4.70;99.90
59025;DHT22;44806;48.008;13.666;2022-11-20T00:21:21;4.70;99.90
59025;DHT22;44806;48.008;13.666;2022-11-20T00:23:48;4.60;99.90
59025;DHT22;44806;48.008;13.666;2022-11-20T00:26:18;4.60;99.90
59025;DHT22;44806;48.008;13.666;2022-11-20T00:28:50;4.60;99.90
59025;DHT22;44806;48.008;13.666;2022-11-20T00:31:20;4.60;99.90
59025;DHT22;44806;48.008;13.666;2022-11-20T00:33:48;4.60;99.90
59025;DHT22;44806;48.008;13.666;2022-11-20T00:36:16;4.60;99.90
59025;DHT22;44806;48.008;13.666;2022-11-20T00:38:44;4.60;99.90
59025;DHT22;44806;48.008;13.666;2022-11-20T00:41:12;4.70;99.90
59025;DHT22;44806;48.008;13.666;2022-11-20T00:43:41;4.70;99.90
59025;DHT22;44806;48.008;13.666;2022-11-20T00:46:12;4.60;99.90
59025;DHT22;44806;48.008;13.666;2022-11-20T00:48:42;4.60;99.90
59025;DHT22;44806;48.008;13.666;2022-11-20T00:51:11;4.60;99.90
59025;DHT22;44806;48.008;13.666;2022-11-20T00:53:39;4.60;99.90
59025;DHT22;44806;48.008;13.666;2022-11-20T00:56:09;4.60;99.90
59025;DHT22;44806;48.008;13.666;2022-11-20T00:58:37;4.60;99.90
59025;DHT22;44806;48.008;13.666;2022-11-20T01:01:09;4.70;99.90
59025;DHT22;44806;48.008;13.666;2022-11-20T01:03:38;4.60;99.90
59025;DHT22;44806;48.008;13.666;2022-11-20T01:06:08;4.60;99.90
59025;DHT22;44806;48.008;13.666;2022-11-20T01:08:36;4.60;99.90
59025;DHT22;44806;48.008;13.666;2022-11-20T01:11:05;4.60;99.90
59025;DHT22;44806;48.008;13.666;2022-11-20T01:13:33;4.60;99.90
59025;DHT22;44806;48.008;13.666;2022-11-20T01:16:09;4.60;99.90
59025;DHT22;44806;48.008;13.666;2022-11-20T01:18:38;4.60;99.90
59025;DHT22;44806;48.008;13.666;2022-11-20T01:21:08;4.70;99.90
59025;DHT22;44806;48.008;13.666;2022-11-20T01:23:41;4.60;99.90
59025;DHT22;44806;48.008;13.666;2022-11-20T01:26:11;4.60;99.90
59025;DHT22;44806;48.008;13.666;2022-11-20T01:28:38;4.70;99.90
59025;DHT22;44806;48.008;13.666;2022-11-20T01:31:13;4.70;99.90
59025;DHT22;44806;48.008;13.666;2022-11-20T01:33:41;4.70;99.90
59025;DHT22;44806;48.008;13.666;2022-11-20T01:36:08;4.70;99.90
59025;DHT22;44806;48.008;13.666;2022-11-20T01:38:36;4.70;99.90
59025;DHT22;44806;48.008;13.666;2022-11-20T01:41:04;4.70;99.90
59025;DHT22;44806;48.008;13.666;2022-11-20T01:43:31;4.70;99.90
59025;DHT22;44806;48.008;13.666;2022-11-20T01:46:08;4.70;99.90
59025;DHT22;44806;48.008;13.666;2022-11-20T01:48:47;4.70;99.90
59025;DHT22;44806;48.008;13.666;2022-11-20T01:51:20;4.70;99.90
59025;DHT22;44806;48.008;13.666;2022-11-20T01:53:48;4.70;99.90
59025;DHT22;44806;48.008;13.666;2022-11-20T01:56:17;4.70;99.90
59025;DHT22;44806;48.008;13.666;2022-11-20T01:58:48;4.70;99.90
59025;DHT22;44806;48.008;13.666;2022-11-20T02:01:17;4.70;99.90
59025;DHT22;44806;48.008;13.666;2022-11-20T02:03:46;4.60;99.90
59025;DHT22;44806;48.008;13.666;2022-11-20T02:06:18;4.60;99.90
59025;DHT22;44806;48.008;13.666;2022-11-20T02:08:46;4.60;99.90
59025;DHT22;44806;48.008;13.666;2022-11-20T02:11:13;4.70;99.90
59025;DHT22;44806;48.008;13.666;2022-11-20T02:13:40;4.70;99.90
59025;DHT22;44806;48.008;13.666;2022-11-20T02:16:19;4.60;99.90
59025;DHT22;44806;48.008;13.666;2022-11-20T02:18:48;4.60;99.90
59025;DHT22;44806;48.008;13.666;2022-11-20T02:21:24;4.60;99.90
59025;DHT22;44806;48.008;13.666;2022-11-20T02:24:00;4.60;99.90
59025;DHT22;44806;48.008;13.666;2022-11-20T02:26:30;4.60;99.90
59025;DHT22;44806;48.008;13.666;2022-11-20T02:28:59;4.60;99.90
59025;DHT22;44806;48.008;13.666;2022-11-20T02:31:27;4.60;99.90
59025;DHT22;44806;48.008;13.666;2022-11-20T02:33:55;4.50;99.90
59025;DHT22;44806;48.008;13.666;2022-11-20T02:36:24;4.50;99.90
59025;DHT22;44806;48.008;13.666;2022-11-20T02:38:53;4.50;99.90
59025;DHT22;44806;48.008;13.666;2022-11-20T02:41:22;4.50;99.90
59025;DHT22;44806;48.008;13.666;2022-11-20T02:43:56;4.60;99.90
59025;DHT22;44806;48.008;13.666;2022-11-20T02:46:23;4.60;99.90
59025;DHT22;44806;48.008;13.666;2022-11-20T02:48:50;4.60;99.90
59025;DHT22;44806;48.008;13.666;2022-11-20T02:51:17;4.70;99.90
59025;DHT22;44806;48.008;13.666;2022-11-20T02:53:44;4.70;99.90
59025;DHT22;44806;48.008;13.666;2022-11-20T02:56:12;4.70;99.90
59025;DHT22;44806;48.008;13.666;2022-11-20T02:58:40;4.70;99.90
59025;DHT22;44806;48.008;13.666;2022-11-20T03:01:07;4.70;99.90
59025;DHT22;44806;48.008;13.666;2022-11-20T03:03:34;4.70;99.90
59025;DHT22;44806;48.008;13.666;2022-11-20T03:06:01;4.80;99.90
59025;DHT22;44806;48.008;13.666;2022-11-20T03:08:28;4.80;99.90
59025;DHT22;44806;48.008;13.666;2022-11-20T03:10:55;4.80;99.90
59025;DHT22;44806;48.008;13.666;2022-11-20T03:13:22;4.80;99.90
59025;DHT22;44806;48.008;13.666;2022-11-20T03:15:52;4.70;99.90
59025;DHT22;44806;48.008;13.666;2022-11-20T03:18:19;4.80;99.90
59025;DHT22;44806;48.008;13.666;2022-11-20T03:20:46;4.80;99.90
59025;DHT22;44806;48.008;13.666;2022-11-20T03:23:13;4.80;99.90
59025;DHT22;44806;48.008;13.666;2022-11-20T03:25:40;4.90;99.90
59025;DHT22;44806;48.008;13.666;2022-11-20T03:28:07;5.00;99.90
59025;DHT22;44806;48.008;13.666;2022-11-20T03:30:35;5.00;99.90
59025;DHT22;44806;48.008;13.666;2022-11-20T03:33:03;5.10;99.90
59025;DHT22;44806;48.008;13.666;2022-11-20T03:35:30;5.10;99.90
59025;DHT22;44806;48.008;13.666;2022-11-20T03:37:57;5.20;99.90
59025;DHT22;44806;48.008;13.666;2022-11-20T03:40:24;5.20;99.90
59025;DHT22;44806;48.008;13.666;2022-11-20T03:42:51;5.30;99.90
59025;DHT22;44806;48.008;13.666;2022-11-20T03:45:19;5.30;99.90
59025;DHT22;44806;48.008;13.666;2022-11-20T03:47:46;5.30;99.90
59025;DHT22;44806;48.008;13.666;2022-11-20T03:50:15;5.40;99.90
59025;DHT22;44806;48.008;13.666;2022-11-20T03:52:42;5.40;99.90
59025;DHT22;44806;48.008;13.666;2022-11-20T03:55:09;5.40;99.90
59025;DHT22;44806;48.008;13.666;2022-11-20T03:57:36;5.50;99.90
59025;DHT22;44806;48.008;13.666;2022-11-20T04:00:04;5.50;99.90
59025;DHT22;44806;48.008;13.666;2022-11-20T04:02:32;5.50;99.90
59025;DHT22;44806;48.008;13.666;2022-11-20T04:04:59;5.60;99.90
59025;DHT22;44806;48.008;13.666;2022-11-20T04:07:27;5.60;99.90
59025;DHT22;44806;48.008;13.666;2022-11-20T04:09:54;5.70;99.90
59025;DHT22;44806;48.008;13.666;2022-11-20T04:12:21;5.70;99.90
59025;DHT22;44806;48.008;13.666;2022-11-20T04:14:48;5.70;99.90
59025;DHT22;44806;48.008;13.666;2022-11-20T04:17:15;5.70;99.90
59025;DHT22;44806;48.008;13.666;2022-11-20T04:19:42;5.80;99.90
59025;DHT22;44806;48.008;13.666;2022-11-20T04:22:09;5.80;99.90
59025;DHT22;44806;48.008;13.666;2022-11-20T04:24:39;5.80;99.90
59025;DHT22;44806;48.008;13.666;2022-11-20T04:27:06;5.90;99.90
59025;DHT22;44806;48.008;13.666;2022-11-20T04:29:33;5.80;99.90
59025;DHT22;44806;48.008;13.666;2022-11-20T04:32:00;5.90;99.90
59025;DHT22;44806;48.008;13.666;2022-11-20T04:34:27;5.90;99.90
59025;DHT22;44806;48.008;13.666;2022-11-20T04:36:54;5.90;99.90
59025;DHT22;44806;48.008;13.666;2022-11-20T04:39:21;5.90;99.90
59025;DHT22;44806;48.008;13.666;2022-11-20T04:41:49;5.90;99.90
59025;DHT22;44806;48.008;13.666;2022-11-20T04:44:36;5.90;99.90
59025;DHT22;44806;48.008;13.666;2022-11-20T04:47:04;5.90;99.90
59025;DHT22;44806;48.008;13.666;2022-11-20T04:49:31;5.90;99.90
59025;DHT22;44806;48.008;13.666;2022-11-20T04:51:59;5.90;99.90
59025;DHT22;44806;48.008;13.666;2022-11-20T04:54:26;5.80;99.90
59025;DHT22;44806;48.008;13.666;2022-11-20T04:56:54;5.80;99.90
59025;DHT22;44806;48.008;13.666;2022-11-20T04:59:22;5.80;99.90
59025;DHT22;44806;48.008;13.666;2022-11-20T05:01:49;5.80;99.90
59025;DHT22;44806;48.008;13.666;2022-11-20T05:04:16;5.80;99.90
59025;DHT22;44806;48.008;13.666;2022-11-20T05:06:43;5.80;99.90
59025;DHT22;44806;48.008;13.666;2022-11-20T05:09:11;5.80;99.90
59025;DHT22;44806;48.008;13.666;2022-11-20T05:11:38;5.80;99.90
59025;DHT22;44806;48.008;13.666;2022-11-20T05:14:06;5.90;99.90
59025;DHT22;44806;48.008;13.666;2022-11-20T05:16:34;5.80;99.90
59025;DHT22;44806;48.008;13.666;2022-11-20T05:19:02;5.80;99.90
59025;DHT22;44806;48.008;13.666;2022-11-20T05:21:30;5.80;99.90
59025;DHT22;44806;48.008;13.666;2022-11-20T05:23:58;5.80;99.90
59025;DHT22;44806;48.008;13.666;2022-11-20T05:26:25;5.80;99.90
59025;DHT22;44806;48.008;13.666;2022-11-20T05:28:52;5.80;99.90
59025;DHT22;44806;48.008;13.666;2022-11-20T05:31:21;5.90;99.90
59025;DHT22;44806;48.008;13.666;2022-11-20T05:33:49;5.90;99.90
59025;DHT22;44806;48.008;13.666;2022-11-20T05:36:16;5.90;99.90
59025;DHT22;44806;48.008;13.666;2022-11-20T05:38:44;5.90;99.90
59025;DHT22;44806;48.008;13.666;2022-11-20T05:41:12;5.90;99.90
59025;DHT22;44806;48.008;13.666;2022-11-20T05:43:41;5.90;99.90
59025;DHT22;44806;48.008;13.666;2022-11-20T05:46:09;5.90;99.90
59025;DHT22;44806;48.008;13.666;2022-11-20T05:48:39;5.90;99.90
59025;DHT22;44806;48.008;13.666;2022-11-20T05:51:10;5.90;99.90
59025;DHT22;44806;48.008;13.666;2022-11-20T05:53:37;6.00;99.90
59025;DHT22;44806;48.008;13.666;2022-11-20T05:56:06;6.00;99.90
59025;DHT22;44806;48.008;13.666;2022-11-20T05:58:36;6.00;99.90
59025;DHT22;44806;48.008;13.666;2022-11-20T06:01:05;6.00;99.90
59025;DHT22;44806;48.008;13.666;2022-11-20T06:03:33;6.00;99.90
59025;DHT22;44806;48.008;13.666;2022-11-20T06:06:03;6.00;99.90
59025;DHT22;44806;48.008;13.666;2022-11-20T06:08:30;6.10;99.90
59025;DHT22;44806;48.008;13.666;2022-11-20T06:10:58;6.00;99.90
59025;DHT22;44806;48.008;13.666;2022-11-20T06:13:25;6.00;99.90
59025;DHT22;44806;48.008;13.666;2022-11-20T06:15:53;6.00;99.90
59025;DHT22;44806;48.008;13.666;2022-11-20T06:18:20;6.00;99.90
59025;DHT22;44806;48.008;13.666;2022-11-20T06:20:47;6.00;99.90
59025;DHT22;44806;48.008;13.666;2022-11-20T06:23:15;6.00;99.90
59025;DHT22;44806;48.008;13.666;2022-11-20T06:25:43;6.10;99.90
59025;DHT22;44806;48.008;13.666;2022-11-20T06:28:10;6.10;99.90
59025;DHT22;44806;48.008;13.666;2022-11-20T06:30:37;6.10;99.90
59025;DHT22;44806;48.008;13.666;2022-11-20T06:33:11;6.10;99.90
59025;DHT22;44806;48.008;13.666;2022-11-20T06:35:38;6.20;99.90
59025;DHT22;44806;48.008;13.666;2022-11-20T06:38:05;6.20;99.90
59025;DHT22;44806;48.008;13.666;2022-11-20T06:40:33;6.20;99.90
59025;DHT22;44806;48.008;13.666;2022-11-20T06:43:00;6.20;99.90
59025;DHT22;44806;48.008;13.666;2022-11-20T06:45:27;6.20;99.90
59025;DHT22;44806;48.008;13.666;2022-11-20T06:47:57;6.20;99.90
59025;DHT22;44806;48.008;13.666;2022-11-20T06:50:24;6.20;99.90
59025;DHT22;44806;48.008;13.666;2022-11-20T06:52:51;6.20;99.90
59025;DHT22;44806;48.008;13.666;2022-11-20T06:55:18;6.20;99.90
59025;DHT22;44806;48.008;13.666;2022-11-20T06:57:47;6.20;99.90
59025;DHT22;44806;48.008;13.666;2022-11-20T07:00:14;6.20;99.90
59025;DHT22;44806;48.008;13.666;2022-11-20T07:02:41;6.20;99.90
59025;DHT22;44806;48.008;13.666;2022-11-20T07:05:08;6.20;99.90
59025;DHT22;44806;48.008;13.666;2022-11-20T07:07:35;6.20;99.90
59025;DHT22;44806;48.008;13.666;2022-11-20T07:10:03;6.20;99.90
59025;DHT22;44806;48.008;13.666;2022-11-20T07:12:30;6.20;99.90
59025;DHT22;44806;48.008;13.666;2022-11-20T07:14:59;6.20;99.90
59025;DHT22;44806;48.008;13.666;2022-11-20T07:17:26;6.20;99.90
59025;DHT22;44806;48.008;13.666;2022-11-20T07:19:53;6.20;99.90
59025;DHT22;44806;48.008;13.666;2022-11-20T07:22:22;6.20;99.90
59025;DHT22;44806;48.008;13.666;2022-11-20T07:24:49;6.20;99.90
59025;DHT22;44806;48.008;13.666;2022-11-20T07:27:16;6.20;99.90
59025;DHT22;44806;48.008;13.666;2022-11-20T07:29:43;6.20;99.90
59025;DHT22;44806;48.008;13.666;2022-11-20T07:32:11;6.30;99.90
59025;DHT22;44806;48.008;13.666;2022-11-20T07:34:39;6.30;99.90
59025;DHT22;44806;48.008;13.666;2022-11-20T07:37:06;6.30;99.90
59025;DHT22;44806;48.008;13.666;2022-11-20T07:39:32;6.30;99.90
59025;DHT22;44806;48.008;13.666;2022-11-20T07:42:00;6.30;99.90
59025;DHT22;44806;48.008;13.666;2022-11-20T07:44:27;6.30;99.90
59025;DHT22;44806;48.008;13.666;2022-11-20T07:46:54;6.30;99.90
59025;DHT22;44806;48.008;13.666;2022-11-20T07:49:22;6.30;99.90
59025;DHT22;44806;48.008;13.666;2022-11-20T07:51:50;6.30;99.90
59025;DHT22;44806;48.008;13.666;2022-11-20T07:54:18;6.30;99.90
59025;DHT22;44806;48.008;13.666;2022-11-20T07:56:46;6.30;99.90
59025;DHT22;44806;48.008;13.666;2022-11-20T07:59:13;6.40;99.90
59025;DHT22;44806;48.008;13.666;2022-11-20T08:01:40;6.40;99.90
59025;DHT22;44806;48.008;13.666;2022-11-20T08:04:08;6.40;99.90
59025;DHT22;44806;48.008;13.666;2022-11-20T08:06:36;6.40;99.90
59025;DHT22;44806;48.008;13.666;2022-11-20T08:09:03;6.40;99.90
59025;DHT22;44806;48.008;13.666;2022-11-20T08:11:30;6.30;99.90
59025;DHT22;44806;48.008;13.666;2022-11-20T08:14:15;6.40;99.90
59025;DHT22;44806;48.008;13.666;2022-11-20T08:16:43;6.40;99.90
59025;DHT22;44806;48.008;13.666;2022-11-20T08:19:11;6.40;99.90
59025;DHT22;44806;48.008;13.666;2022-11-20T08:21:40;6.50;99.90
59025;DHT22;44806;48.008;13.666;2022-11-20T08:24:08;6.50;99.90
59025;DHT22;44806;48.008;13.666;2022-11-20T08:26:35;6.50;99.90
59025;DHT22;44806;48.008;13.666;2022-11-20T08:29:03;6.50;99.90
59025;DHT22;44806;48.008;13.666;2022-11-20T08:31:31;6.50;99.90
59025;DHT22;44806;48.008;13.666;2022-11-20T08:33:58;6.60;99.90
59025;DHT22;44806;48.008;13.666;2022-11-20T08:36:25;6.60;99.90
59025;DHT22;44806;48.008;13.666;2022-11-20T08:38:55;6.60;99.90
59025;DHT22;44806;48.008;13.666;2022-11-20T08:41:22;6.60;99.90
59025;DHT22;44806;48.008;13.666;2022-11-20T08:43:55;6.70;99.90
59025;DHT22;44806;48.008;13.666;2022-11-20T08:46:23;6.70;99.90
59025;DHT22;44806;48.008;13.666;2022-11-20T08:48:51;6.70;99.90
59025;DHT22;44806;48.008;13.666;2022-11-20T08:51:18;6.80;99.90
59025;DHT22;44806;48.008;13.666;2022-11-20T08:53:46;6.80;99.90
59025;DHT22;44806;48.008;13.666;2022-11-20T08:56:17;6.90;99.90
59025;DHT22;44806;48.008;13.666;2022-11-20T08:58:44;6.90;99.90
59025;DHT22;44806;48.008;13.666;2022-11-20T09:01:11;7.00;99.90
59025;DHT22;44806;48.008;13.666;2022-11-20T09:03:38;7.00;99.90
59025;DHT22;44806;48.008;13.666;2022-11-20T09:06:07;7.20;99.90
59025;DHT22;44806;48.008;13.666;2022-11-20T09:08:34;7.10;99.90
59025;DHT22;44806;48.008;13.666;2022-11-20T09:11:02;7.20;99.90
59025;DHT22;44806;48.008;13.666;2022-11-20T09:13:33;7.20;99.90
59025;DHT22;44806;48.008;13.666;2022-11-20T09:16:01;7.30;99.90
59025;DHT22;44806;48.008;13.666;2022-11-20T09:18:29;7.40;99.90
59025;DHT22;44806;48.008;13.666;2022-11-20T09:20:58;7.40;99.90
59025;DHT22;44806;48.008;13.666;2022-11-20T09:23:26;7.50;99.90
59025;DHT22;44806;48.008;13.666;2022-11-20T09:25:53;7.50;99.90
59025;DHT22;44806;48.008;13.666;2022-11-20T09:28:25;7.50;99.90
59025;DHT22;44806;48.008;13.666;2022-11-20T09:30:53;7.60;99.90
59025;DHT22;44806;48.008;13.666;2022-11-20T09:33:20;7.60;99.90
59025;DHT22;44806;48.008;13.666;2022-11-20T09:35:48;7.70;99.90
59025;DHT22;44806;48.008;13.666;2022-11-20T09:38:15;7.70;99.90
59025;DHT22;44806;48.008;13.666;2022-11-20T09:40:47;7.70;99.90
59025;DHT22;44806;48.008;13.666;2022-11-20T09:43:20;7.70;99.90
59025;DHT22;44806;48.008;13.666;2022-11-20T09:46:06;7.80;99.90
59025;DHT22;44806;48.008;13.666;2022-11-20T09:48:55;7.80;99.90
59025;DHT22;44806;48.008;13.666;2022-11-20T09:51:34;7.80;99.90
59025;DHT22;44806;48.008;13.666;2022-11-20T09:54:15;7.80;99.90
59025;DHT22;44806;48.008;13.666;2022-11-20T09:56:46;7.90;99.90
59025;DHT22;44806;48.008;13.666;2022-11-20T09:59:27;7.90;99.90
59025;DHT22;44806;48.008;13.666;2022-11-20T10:02:03;8.00;99.90
59025;DHT22;44806;48.008;13.666;2022-11-20T10:04:34;8.00;99.90
59025;DHT22;44806;48.008;13.666;2022-11-20T10:07:08;8.10;99.90
59025;DHT22;44806;48.008;13.666;2022-11-20T10:09:40;8.10;99.90
59025;DHT22;44806;48.008;13.666;2022-11-20T10:12:14;8.10;99.90
59025;DHT22;44806;48.008;13.666;2022-11-20T10:15:06;8.20;99.90
59025;DHT22;44806;48.008;13.666;2022-11-20T10:18:17;8.30;99.90
59025;DHT22;44806;48.008;13.666;2022-11-20T10:20:55;8.30;99.90
59025;DHT22;44806;48.008;13.666;2022-11-20T10:23:44;8.30;99.90
59025;DHT22;44806;48.008;13.666;2022-11-20T10:26:20;8.30;99.90
59025;DHT22;44806;48.008;13.666;2022-11-20T10:29:09;8.30;99.90
59025;DHT22;44806;48.008;13.666;2022-11-20T10:31:39;8.30;99.90
59025;DHT22;44806;48.008;13.666;2022-11-20T10:34:18;8.40;99.90
59025;DHT22;44806;48.008;13.666;2022-11-20T10:36:52;8.40;99.90
59025;DHT22;44806;48.008;13.666;2022-11-20T10:39:25;8.50;99.90
59025;DHT22;44806;48.008;13.666;2022-11-20T10:41:56;8.60;99.90
59025;DHT22;44806;48.008;13.666;2022-11-20T10:44:27;8.60;99.90
59025;DHT22;44806;48.008;13.666;2022-11-20T10:47:14;8.70;99.90
59025;DHT22;44806;48.008;13.666;2022-11-20T10:49:44;8.70;99.90
59025;DHT22;44806;48.008;13.666;2022-11-20T10:52:18;8.70;99.50
59025;DHT22;44806;48.008;13.666;2022-11-20T10:54:53;8.60;98.90
59025;DHT22;44806;48.008;13.666;2022-11-20T10:57:35;8.60;98.60
59025;DHT22;44806;48.008;13.666;2022-11-20T11:00:11;8.60;99.80
59025;DHT22;44806;48.008;13.666;2022-11-20T11:02:43;8.60;99.90
59025;DHT22;44806;48.008;13.666;2022-11-20T11:05:18;8.60;99.90
59025;DHT22;44806;48.008;13.666;2022-11-20T11:07:50;8.70;99.90
59025;DHT22;44806;48.008;13.666;2022-11-20T11:10:22;8.70;99.90
59025;DHT22;44806;48.008;13.666;2022-11-20T11:12:50;8.70;99.50
59025;DHT22;44806;48.008;13.666;2022-11-20T11:15:26;8.60;97.80
59025;DHT22;44806;48.008;13.666;2022-11-20T11:17:53;8.50;96.10
59025;DHT22;44806;48.008;13.666;2022-11-20T11:20:25;8.50;95.00
59025;DHT22;44806;48.008;13.666;2022-11-20T11:22:56;8.50;95.30
59025;DHT22;44806;48.008;13.666;2022-11-20T11:25:32;8.40;95.50
59025;DHT22;44806;48.008;13.666;2022-11-20T11:28:02;8.50;94.80
59025;DHT22;44806;48.008;13.666;2022-11-20T11:30:40;8.50;95.00
59025;DHT22;44806;48.008;13.666;2022-11-20T11:33:11;8.60;95.00
59025;DHT22;44806;48.008;13.666;2022-11-20T11:35:45;8.60;95.20
59025;DHT22;44806;48.008;13.666;2022-11-20T11:38:15;8.60;94.90
59025;DHT22;44806;48.008;13.666;2022-11-20T11:40:43;8.70;94.80
59025;DHT22;44806;48.008;13.666;2022-11-20T11:43:19;8.70;95.50
59025;DHT22;44806;48.008;13.666;2022-11-20T11:46:09;8.80;96.00
59025;DHT22;44806;48.008;13.666;2022-11-20T11:48:42;8.80;95.80
59025;DHT22;44806;48.008;13.666;2022-11-20T11:51:10;8.80;95.10
59025;DHT22;44806;48.008;13.666;2022-11-20T11:53:41;8.90;94.90
59025;DHT22;44806;48.008;13.666;2022-11-20T11:56:10;9.00;96.50
59025;DHT22;44806;48.008;13.666;2022-11-20T11:58:43;9.00;96.20
59025;DHT22;44806;48.008;13.666;2022-11-20T12:01:26;9.10;95.20
59025;DHT22;44806;48.008;13.666;2022-11-20T12:04:02;9.20;95.60
59025;DHT22;44806;48.008;13.666;2022-11-20T12:06:32;9.30;95.50
59025;DHT22;44806;48.008;13.666;2022-11-20T12:09:05;9.30;95.40
59025;DHT22;44806;48.008;13.666;2022-11-20T12:11:38;9.40;95.80
59025;DHT22;44806;48.008;13.666;2022-11-20T12:14:13;9.40;95.80
59025;DHT22;44806;48.008;13.666;2022-11-20T12:16:44;9.30;94.50
59025;DHT22;44806;48.008;13.666;2022-11-20T12:19:13;9.30;95.50
59025;DHT22;44806;48.008;13.666;2022-11-20T12:21:50;9.30;94.60
59025;DHT22;44806;48.008;13.666;2022-11-20T12:24:45;9.20;95.30
59025;DHT22;44806;48.008;13.666;2022-11-20T12:27:43;9.30;95.60
59025;DHT22;44806;48.008;13.666;2022-11-20T12:30:15;9.30;95.70
59025;DHT22;44806;48.008;13.666;2022-11-20T12:33:07;9.30;96.30
59025;DHT22;44806;48.008;13.666;2022-11-20T12:35:48;9.40;96.70
59025;DHT22;44806;48.008;13.666;2022-11-20T12:38:45;9.30;95.50
59025;DHT22;44806;48.008;13.666;2022-11-20T12:41:26;9.40;95.00
59025;DHT22;44806;48.008;13.666;2022-11-20T12:44:18;9.40;95.70
59025;DHT22;44806;48.008;13.666;2022-11-20T12:47:14;9.50;95.10
59025;DHT22;44806;48.008;13.666;2022-11-20T12:49:53;9.40;94.00
59025;DHT22;44806;48.008;13.666;2022-11-20T12:52:37;9.50;94.60
59025;DHT22;44806;48.008;13.666;2022-11-20T12:55:23;9.50;93.00
59025;DHT22;44806;48.008;13.666;2022-11-20T12:57:57;9.60;94.00
59025;DHT22;44806;48.008;13.666;2022-11-20T13:00:25;9.50;93.90
59025;DHT22;44806;48.008;13.666;2022-11-20T13:03:16;9.50;94.40
59025;DHT22;44806;48.008;13.666;2022-11-20T13:05:58;9.60;92.90
59025;DHT22;44806;48.008;13.666;2022-11-20T13:08:29;9.60;93.60
59025;DHT22;44806;48.008;13.666;2022-11-20T13:11:06;9.60;92.70
59025;DHT22;44806;48.008;13.666;2022-11-20T13:13:58;9.60;92.90
59025;DHT22;44806;48.008;13.666;2022-11-20T13:16:33;9.60;92.00
59025;DHT22;44806;48.008;13.666;2022-11-20T13:19:02;9.60;93.00
59025;DHT22;44806;48.008;13.666;2022-11-20T13:21:36;9.50;92.30
59025;DHT22;44806;48.008;13.666;2022-11-20T13:24:05;9.60;93.00
59025;DHT22;44806;48.008;13.666;2022-11-20T13:26:33;9.50;92.50
59025;DHT22;44806;48.008;13.666;2022-11-20T13:29:08;9.50;92.10
59025;DHT22;44806;48.008;13.666;2022-11-20T13:31:38;9.50;90.80
59025;DHT22;44806;48.008;13.666;2022-11-20T13:34:12;9.50;91.50
59025;DHT22;44806;48.008;13.666;2022-11-20T13:36:49;9.50;91.90
59025;DHT22;44806;48.008;13.666;2022-11-20T13:39:27;9.50;92.40
59025;DHT22;44806;48.008;13.666;2022-11-20T13:41:58;9.40;92.00
59025;DHT22;44806;48.008;13.666;2022-11-20T13:44:28;9.40;91.20
59025;DHT22;44806;48.008;13.666;2022-11-20T13:46:56;9.40;92.10
59025;DHT22;44806;48.008;13.666;2022-11-20T13:49:27;9.40;90.80
59025;DHT22;44806;48.008;13.666;2022-11-20T13:52:06;9.40;90.40
59025;DHT22;44806;48.008;13.666;2022-11-20T13:57:51;9.30;91.50
59025;DHT22;44806;48.008;13.666;2022-11-20T14:00:22;9.30;92.60
59025;DHT22;44806;48.008;13.666;2022-11-20T14:03:11;9.30;91.70
59025;DHT22;44806;48.008;13.666;2022-11-20T14:05:49;9.30;91.80
59025;DHT22;44806;48.008;13.666;2022-11-20T14:08:26;9.30;91.70
59025;DHT22;44806;48.008;13.666;2022-11-20T14:11:03;9.20;91.00
59025;DHT22;44806;48.008;13.666;2022-11-20T14:13:32;9.20;92.40
59025;DHT22;44806;48.008;13.666;2022-11-20T14:16:04;9.20;91.60
59025;DHT22;44806;48.008;13.666;2022-11-20T14:18:31;9.10;91.70
59025;DHT22;44806;48.008;13.666;2022-11-20T14:21:00;9.20;92.00
59025;DHT22;44806;48.008;13.666;2022-11-20T14:23:31;9.20;92.30
59025;DHT22;44806;48.008;13.666;2022-11-20T14:25:58;9.30;92.80
59025;DHT22;44806;48.008;13.666;2022-11-20T14:28:27;9.20;92.30
59025;DHT22;44806;48.008;13.666;2022-11-20T14:30:57;9.20;92.90
59025;DHT22;44806;48.008;13.666;2022-11-20T14:33:27;9.20;92.70
59025;DHT22;44806;48.008;13.666;2022-11-20T14:35:55;9.30;92.60
59025;DHT22;44806;48.008;13.666;2022-11-20T14:38:25;9.20;92.40
59025;DHT22;44806;48.008;13.666;2022-11-20T14:40:53;9.20;92.50
59025;DHT22;44806;48.008;13.666;2022-11-20T14:43:23;9.30;93.30
59025;DHT22;44806;48.008;13.666;2022-11-20T14:45:58;9.20;93.40
59025;DHT22;44806;48.008;13.666;2022-11-20T14:48:31;9.20;92.60
59025;DHT22;44806;48.008;13.666;2022-11-20T14:50:59;9.20;93.90
59025;DHT22;44806;48.008;13.666;2022-11-20T14:53:29;9.20;93.50
59025;DHT22;44806;48.008;13.666;2022-11-20T14:56:01;9.10;93.10
59025;DHT22;44806;48.008;13.666;2022-11-20T14:58:30;9.20;95.40
59025;DHT22;44806;48.008;13.666;2022-11-20T15:01:02;9.30;95.20
59025;DHT22;44806;48.008;13.666;2022-11-20T15:03:34;9.20;95.60
59025;DHT22;44806;48.008;13.666;2022-11-20T15:06:01;9.20;94.30
59025;DHT22;44806;48.008;13.666;2022-11-20T15:08:34;9.20;95.50
59025;DHT22;44806;48.008;13.666;2022-11-20T15:11:02;9.10;94.90
59025;DHT22;44806;48.008;13.666;2022-11-20T15:13:32;9.10;95.40
59025;DHT22;44806;48.008;13.666;2022-11-20T15:16:02;9.10;95.30
59025;DHT22;44806;48.008;13.666;2022-11-20T15:18:32;9.10;94.90
59025;DHT22;44806;48.008;13.666;2022-11-20T15:21:03;9.00;95.30
59025;DHT22;44806;48.008;13.666;2022-11-20T15:23:31;8.90;95.10
59025;DHT22;44806;48.008;13.666;2022-11-20T15:25:58;8.80;95.30
59025;DHT22;44806;48.008;13.666;2022-11-20T15:28:30;8.80;95.20
59025;DHT22;44806;48.008;13.666;2022-11-20T15:30:58;8.70;95.80
59025;DHT22;44806;48.008;13.666;2022-11-20T15:33:26;8.60;95.40
59025;DHT22;44806;48.008;13.666;2022-11-20T15:35:54;8.70;96.00
59025;DHT22;44806;48.008;13.666;2022-11-20T15:38:21;8.60;96.20
59025;DHT22;44806;48.008;13.666;2022-11-20T15:40:48;8.60;96.40
59025;DHT22;44806;48.008;13.666;2022-11-20T15:43:15;8.50;96.70
59025;DHT22;44806;48.008;13.666;2022-11-20T15:45:45;8.40;97.30
59025;DHT22;44806;48.008;13.666;2022-11-20T15:48:19;8.50;98.10
59025;DHT22;44806;48.008;13.666;2022-11-20T15:50:54;8.40;98.10
59025;DHT22;44806;48.008;13.666;2022-11-20T15:53:23;8.30;99.00
59025;DHT22;44806;48.008;13.666;2022-11-20T15:55:50;8.30;98.90